Etusivu
METAR-TAF:

METAR-TAF

Lentoasemat :

Sankt Gallen, Sveitsi

Leveyspiiri: 47-29-06N, Pituuspiiri: 009-33-43E, korkeus merenpinnasta: 398 m

Tämänhetkinen sää

Tämä raportti tehtiin 23 minuuttia sitten, kello 18.20 UTC
Tuuli 3 kn kaakosta
Lämpötila 3°C
Kosteus 100%
Ilmanpaine 1005 hPa
Näkyvyys 10 km tai enemmän
Hajanaisia pilviä 6000 ft:n korkeudessa

METAR: LSZR 121820Z 13003KT 9999 SCT060 03/03 Q1005 NOSIG RMK M

Aika: 19:43 (18:43 UTC)

Sääennuste

Tämä raportti tehtiin 4 tuntia ja 18 minuuttia sitten, kello 14.25 UTC
Ennuste voimassa 12. päivästä klo 15 UTC - 12. päivään klo 24 UTC
Tuuli 4 kn idästä/koillisesta
Näkyvyys 10 km tai enemmän
Muutamia pilviä 3000 ft:n korkeudessa
Hajonneita pilviä 10000 ft:n korkeudessa
Todennäköisyys 30% :
Ajoittain
12. päivästä klo 21 UTC - 12. päivään klo 24 UTC
Muutamia pilviä 3000 ft:n korkeudessa, Kasvava cumulus-pilvi.
vesikuuroja

TAF: LSZR 121425Z 1215/1224 07004KT 9999 FEW030 BKN100 PROB30 TEMPO 1221/1224 SHRA FEW030TCU

Säähavainnot ja -ennusteet yli 4000 lentoasemalta (METAR- ja TAF-raportit).

Käytössä olevat sääasemat on merkitty karttaan keltaisilla ja punaisilla pisteillä.

Aseta hiiri pisteen päälle nähdäksesi sääaseman nimen.

Klikkaa sitten nähdäksesi säähavainnot ja -ennusteet.

Kartan vaihtaminen: klikkaa mustalla rastilla varustettuja vihreitä pisteitä, niin voit zoomata sisään; viivalla varustettua vihreää pistettä, niin voit zoomata ulos tai vihreitä nuolia, niin pääset viereisille kartoille.


METAR-TAF: